sensor_id;sensor_type;location;lat;lon;timestamp;temperature;humidity
36186;DHT22;22228;53.222;7.446;2022-07-01T00:01:44;15.80;99.90
36186;DHT22;22228;53.222;7.446;2022-07-01T00:04:07;15.70;99.90
36186;DHT22;22228;53.222;7.446;2022-07-01T00:06:30;15.60;99.90
36186;DHT22;22228;53.222;7.446;2022-07-01T00:08:51;15.60;99.90
36186;DHT22;22228;53.222;7.446;2022-07-01T00:11:15;15.50;99.90
36186;DHT22;22228;53.222;7.446;2022-07-01T00:13:37;15.60;99.90
36186;DHT22;22228;53.222;7.446;2022-07-01T00:15:59;15.50;99.90
36186;DHT22;22228;53.222;7.446;2022-07-01T00:18:22;15.50;99.90
36186;DHT22;22228;53.222;7.446;2022-07-01T00:20:45;15.50;99.90
36186;DHT22;22228;53.222;7.446;2022-07-01T00:23:06;15.50;99.90
36186;DHT22;22228;53.222;7.446;2022-07-01T00:25:28;15.50;99.90
36186;DHT22;22228;53.222;7.446;2022-07-01T00:27:51;15.50;99.90
36186;DHT22;22228;53.222;7.446;2022-07-01T00:30:14;15.40;99.90
36186;DHT22;22228;53.222;7.446;2022-07-01T00:32:37;15.30;99.90
36186;DHT22;22228;53.222;7.446;2022-07-01T00:34:59;15.30;99.90
36186;DHT22;22228;53.222;7.446;2022-07-01T00:37:21;15.30;99.90
36186;DHT22;22228;53.222;7.446;2022-07-01T00:39:43;15.20;99.90
36186;DHT22;22228;53.222;7.446;2022-07-01T00:42:05;15.20;99.90
36186;DHT22;22228;53.222;7.446;2022-07-01T00:44:29;15.20;99.90
36186;DHT22;22228;53.222;7.446;2022-07-01T00:46:51;15.10;99.90
36186;DHT22;22228;53.222;7.446;2022-07-01T00:49:13;15.10;99.90
36186;DHT22;22228;53.222;7.446;2022-07-01T00:51:36;15.10;99.90
36186;DHT22;22228;53.222;7.446;2022-07-01T00:53:58;15.10;99.90
36186;DHT22;22228;53.222;7.446;2022-07-01T00:56:22;15.20;99.90
36186;DHT22;22228;53.222;7.446;2022-07-01T00:58:45;15.20;99.90
36186;DHT22;22228;53.222;7.446;2022-07-01T01:01:09;15.30;99.90
36186;DHT22;22228;53.222;7.446;2022-07-01T01:03:32;15.30;99.90
36186;DHT22;22228;53.222;7.446;2022-07-01T01:05:54;15.30;99.90
36186;DHT22;22228;53.222;7.446;2022-07-01T01:08:18;15.30;99.90
36186;DHT22;22228;53.222;7.446;2022-07-01T01:10:40;15.30;99.90
36186;DHT22;22228;53.222;7.446;2022-07-01T01:13:02;15.30;99.90
36186;DHT22;22228;53.222;7.446;2022-07-01T01:15:25;15.30;99.90
36186;DHT22;22228;53.222;7.446;2022-07-01T01:17:49;15.30;99.90
36186;DHT22;22228;53.222;7.446;2022-07-01T01:20:14;15.20;99.90
36186;DHT22;22228;53.222;7.446;2022-07-01T01:22:38;15.20;99.90
36186;DHT22;22228;53.222;7.446;2022-07-01T01:25:00;15.20;99.90
36186;DHT22;22228;53.222;7.446;2022-07-01T01:27:25;15.20;99.90
36186;DHT22;22228;53.222;7.446;2022-07-01T01:29:47;15.20;99.90
36186;DHT22;22228;53.222;7.446;2022-07-01T01:32:09;15.20;99.90
36186;DHT22;22228;53.222;7.446;2022-07-01T01:34:32;15.20;99.90
36186;DHT22;22228;53.222;7.446;2022-07-01T01:36:54;15.10;99.90
36186;DHT22;22228;53.222;7.446;2022-07-01T01:39:18;15.10;99.90
36186;DHT22;22228;53.222;7.446;2022-07-01T01:41:40;15.20;99.90
36186;DHT22;22228;53.222;7.446;2022-07-01T01:44:02;15.10;99.90
36186;DHT22;22228;53.222;7.446;2022-07-01T01:46:24;15.20;99.90
36186;DHT22;22228;53.222;7.446;2022-07-01T01:48:46;15.20;99.90
36186;DHT22;22228;53.222;7.446;2022-07-01T01:51:08;15.20;99.90
36186;DHT22;22228;53.222;7.446;2022-07-01T01:53:30;15.30;99.90
36186;DHT22;22228;53.222;7.446;2022-07-01T01:55:54;15.30;99.90
36186;DHT22;22228;53.222;7.446;2022-07-01T01:58:16;15.30;99.90
36186;DHT22;22228;53.222;7.446;2022-07-01T02:00:39;15.30;99.90
36186;DHT22;22228;53.222;7.446;2022-07-01T02:03:01;15.30;99.90
36186;DHT22;22228;53.222;7.446;2022-07-01T02:05:23;15.30;99.90
36186;DHT22;22228;53.222;7.446;2022-07-01T02:07:45;15.30;99.90
36186;DHT22;22228;53.222;7.446;2022-07-01T02:10:08;15.30;99.90
36186;DHT22;22228;53.222;7.446;2022-07-01T02:12:31;15.30;99.90
36186;DHT22;22228;53.222;7.446;2022-07-01T02:14:53;15.30;99.90
36186;DHT22;22228;53.222;7.446;2022-07-01T02:17:15;15.30;99.90
36186;DHT22;22228;53.222;7.446;2022-07-01T02:19:37;15.30;99.90
36186;DHT22;22228;53.222;7.446;2022-07-01T02:21:59;15.30;99.90
36186;DHT22;22228;53.222;7.446;2022-07-01T02:24:21;15.30;99.90
36186;DHT22;22228;53.222;7.446;2022-07-01T02:26:43;15.30;99.90
36186;DHT22;22228;53.222;7.446;2022-07-01T02:29:07;15.30;99.90
36186;DHT22;22228;53.222;7.446;2022-07-01T02:31:29;15.30;99.90
36186;DHT22;22228;53.222;7.446;2022-07-01T02:33:50;15.30;99.90
36186;DHT22;22228;53.222;7.446;2022-07-01T02:36:13;15.30;99.90
36186;DHT22;22228;53.222;7.446;2022-07-01T02:38:35;15.30;99.90
36186;DHT22;22228;53.222;7.446;2022-07-01T02:40:56;15.30;99.90
36186;DHT22;22228;53.222;7.446;2022-07-01T02:43:19;15.30;99.90
36186;DHT22;22228;53.222;7.446;2022-07-01T02:45:43;15.30;99.90
36186;DHT22;22228;53.222;7.446;2022-07-01T02:48:05;15.20;99.90
36186;DHT22;22228;53.222;7.446;2022-07-01T02:50:28;15.20;99.90
36186;DHT22;22228;53.222;7.446;2022-07-01T02:52:51;15.10;99.90
36186;DHT22;22228;53.222;7.446;2022-07-01T02:55:13;15.10;99.90
36186;DHT22;22228;53.222;7.446;2022-07-01T02:57:36;15.10;99.90
36186;DHT22;22228;53.222;7.446;2022-07-01T02:59:58;15.10;99.90
36186;DHT22;22228;53.222;7.446;2022-07-01T03:02:22;15.10;99.90
36186;DHT22;22228;53.222;7.446;2022-07-01T03:04:45;15.10;99.90
36186;DHT22;22228;53.222;7.446;2022-07-01T03:07:07;15.00;99.90
36186;DHT22;22228;53.222;7.446;2022-07-01T03:09:30;15.00;99.90
36186;DHT22;22228;53.222;7.446;2022-07-01T03:11:54;15.00;99.90
36186;DHT22;22228;53.222;7.446;2022-07-01T03:14:17;15.00;99.90
36186;DHT22;22228;53.222;7.446;2022-07-01T03:16:39;15.00;99.90
36186;DHT22;22228;53.222;7.446;2022-07-01T03:19:04;15.00;99.90
36186;DHT22;22228;53.222;7.446;2022-07-01T03:21:26;14.90;99.90
36186;DHT22;22228;53.222;7.446;2022-07-01T03:23:48;14.90;99.90
36186;DHT22;22228;53.222;7.446;2022-07-01T03:26:10;14.90;99.90
36186;DHT22;22228;53.222;7.446;2022-07-01T03:28:32;14.90;99.90
36186;DHT22;22228;53.222;7.446;2022-07-01T03:30:55;14.90;99.90
36186;DHT22;22228;53.222;7.446;2022-07-01T03:33:17;14.90;99.90
36186;DHT22;22228;53.222;7.446;2022-07-01T03:35:40;14.90;99.90
36186;DHT22;22228;53.222;7.446;2022-07-01T03:38:07;14.90;99.90
36186;DHT22;22228;53.222;7.446;2022-07-01T03:40:29;14.90;99.90
36186;DHT22;22228;53.222;7.446;2022-07-01T03:42:52;14.80;99.90
36186;DHT22;22228;53.222;7.446;2022-07-01T03:45:14;14.80;99.90
36186;DHT22;22228;53.222;7.446;2022-07-01T03:47:36;14.80;99.90
36186;DHT22;22228;53.222;7.446;2022-07-01T03:49:58;14.80;99.90
36186;DHT22;22228;53.222;7.446;2022-07-01T03:52:21;14.80;99.90
36186;DHT22;22228;53.222;7.446;2022-07-01T03:54:43;14.80;99.90
36186;DHT22;22228;53.222;7.446;2022-07-01T03:57:06;14.80;99.90
36186;DHT22;22228;53.222;7.446;2022-07-01T03:59:30;14.90;99.90
36186;DHT22;22228;53.222;7.446;2022-07-01T04:01:52;14.80;99.90
36186;DHT22;22228;53.222;7.446;2022-07-01T04:04:14;14.80;99.90
36186;DHT22;22228;53.222;7.446;2022-07-01T04:06:37;14.80;99.90
36186;DHT22;22228;53.222;7.446;2022-07-01T04:09:00;14.80;99.90
36186;DHT22;22228;53.222;7.446;2022-07-01T04:11:23;14.80;99.90
36186;DHT22;22228;53.222;7.446;2022-07-01T04:13:46;14.80;99.90
36186;DHT22;22228;53.222;7.446;2022-07-01T04:16:11;14.80;99.90
36186;DHT22;22228;53.222;7.446;2022-07-01T04:18:33;14.80;99.90
36186;DHT22;22228;53.222;7.446;2022-07-01T04:20:56;14.80;99.90
36186;DHT22;22228;53.222;7.446;2022-07-01T04:23:36;14.80;99.90
36186;DHT22;22228;53.222;7.446;2022-07-01T04:25:59;14.80;99.90
36186;DHT22;22228;53.222;7.446;2022-07-01T04:28:41;14.80;99.90
36186;DHT22;22228;53.222;7.446;2022-07-01T04:31:03;14.80;99.90
36186;DHT22;22228;53.222;7.446;2022-07-01T04:33:25;14.90;99.90
36186;DHT22;22228;53.222;7.446;2022-07-01T04:35:47;14.80;99.90
36186;DHT22;22228;53.222;7.446;2022-07-01T04:38:09;14.90;99.90
36186;DHT22;22228;53.222;7.446;2022-07-01T04:40:34;14.90;99.90
36186;DHT22;22228;53.222;7.446;2022-07-01T04:42:57;14.80;99.90
36186;DHT22;22228;53.222;7.446;2022-07-01T04:45:18;14.80;99.90
36186;DHT22;22228;53.222;7.446;2022-07-01T04:47:40;14.80;99.90
36186;DHT22;22228;53.222;7.446;2022-07-01T04:50:02;14.90;99.90
36186;DHT22;22228;53.222;7.446;2022-07-01T04:52:24;14.90;99.90
36186;DHT22;22228;53.222;7.446;2022-07-01T04:54:46;14.90;99.90
36186;DHT22;22228;53.222;7.446;2022-07-01T04:57:08;14.90;99.90
36186;DHT22;22228;53.222;7.446;2022-07-01T04:59:31;14.90;99.90
36186;DHT22;22228;53.222;7.446;2022-07-01T05:01:54;14.90;99.90
36186;DHT22;22228;53.222;7.446;2022-07-01T05:04:16;14.90;99.90
36186;DHT22;22228;53.222;7.446;2022-07-01T05:06:39;15.00;99.90
36186;DHT22;22228;53.222;7.446;2022-07-01T05:09:01;15.00;99.90
36186;DHT22;22228;53.222;7.446;2022-07-01T05:11:23;15.10;99.90
36186;DHT22;22228;53.222;7.446;2022-07-01T05:13:45;15.10;99.90
36186;DHT22;22228;53.222;7.446;2022-07-01T05:16:09;15.20;99.90
36186;DHT22;22228;53.222;7.446;2022-07-01T05:18:31;15.20;99.90
36186;DHT22;22228;53.222;7.446;2022-07-01T05:21:11;15.20;99.90
36186;DHT22;22228;53.222;7.446;2022-07-01T05:23:56;15.20;99.90
36186;DHT22;22228;53.222;7.446;2022-07-01T05:26:18;15.20;99.90
36186;DHT22;22228;53.222;7.446;2022-07-01T05:28:40;15.20;99.90
36186;DHT22;22228;53.222;7.446;2022-07-01T05:31:09;15.20;99.90
36186;DHT22;22228;53.222;7.446;2022-07-01T05:33:31;15.20;99.90
36186;DHT22;22228;53.222;7.446;2022-07-01T05:35:53;15.30;99.90
36186;DHT22;22228;53.222;7.446;2022-07-01T05:38:15;15.30;99.90
36186;DHT22;22228;53.222;7.446;2022-07-01T05:40:37;15.30;99.90
36186;DHT22;22228;53.222;7.446;2022-07-01T05:42:59;15.30;99.90
36186;DHT22;22228;53.222;7.446;2022-07-01T05:45:21;15.30;99.90
36186;DHT22;22228;53.222;7.446;2022-07-01T05:47:45;15.30;99.90
36186;DHT22;22228;53.222;7.446;2022-07-01T05:50:07;15.30;99.90
36186;DHT22;22228;53.222;7.446;2022-07-01T05:52:30;15.20;99.90
36186;DHT22;22228;53.222;7.446;2022-07-01T05:54:51;15.20;99.90
36186;DHT22;22228;53.222;7.446;2022-07-01T05:57:13;15.20;99.90
36186;DHT22;22228;53.222;7.446;2022-07-01T05:59:35;15.20;99.90
36186;DHT22;22228;53.222;7.446;2022-07-01T06:01:57;15.20;99.90
36186;DHT22;22228;53.222;7.446;2022-07-01T06:04:21;15.30;99.90
36186;DHT22;22228;53.222;7.446;2022-07-01T06:06:43;15.30;99.90
36186;DHT22;22228;53.222;7.446;2022-07-01T06:09:05;15.40;99.90
36186;DHT22;22228;53.222;7.446;2022-07-01T06:11:27;15.40;99.90
36186;DHT22;22228;53.222;7.446;2022-07-01T06:13:49;15.40;99.90
36186;DHT22;22228;53.222;7.446;2022-07-01T06:16:11;15.40;99.90
36186;DHT22;22228;53.222;7.446;2022-07-01T06:18:33;15.50;99.90
36186;DHT22;22228;53.222;7.446;2022-07-01T06:20:56;15.50;99.90
36186;DHT22;22228;53.222;7.446;2022-07-01T06:23:18;15.50;99.90
36186;DHT22;22228;53.222;7.446;2022-07-01T06:25:41;15.60;99.90
36186;DHT22;22228;53.222;7.446;2022-07-01T06:28:03;15.60;99.90
36186;DHT22;22228;53.222;7.446;2022-07-01T06:30:25;15.70;99.90
36186;DHT22;22228;53.222;7.446;2022-07-01T06:32:47;15.70;99.90
36186;DHT22;22228;53.222;7.446;2022-07-01T06:35:09;15.70;99.90
36186;DHT22;22228;53.222;7.446;2022-07-01T06:37:33;15.70;99.90
36186;DHT22;22228;53.222;7.446;2022-07-01T06:39:56;15.80;99.90
36186;DHT22;22228;53.222;7.446;2022-07-01T06:42:18;15.80;99.90
36186;DHT22;22228;53.222;7.446;2022-07-01T06:44:42;15.80;99.90
36186;DHT22;22228;53.222;7.446;2022-07-01T06:47:04;15.80;99.90
36186;DHT22;22228;53.222;7.446;2022-07-01T06:49:27;15.70;99.90
36186;DHT22;22228;53.222;7.446;2022-07-01T06:51:49;15.60;99.90
36186;DHT22;22228;53.222;7.446;2022-07-01T06:54:12;15.60;99.90
36186;DHT22;22228;53.222;7.446;2022-07-01T06:56:35;15.60;99.90
36186;DHT22;22228;53.222;7.446;2022-07-01T06:58:57;15.70;99.90
36186;DHT22;22228;53.222;7.446;2022-07-01T07:01:19;15.80;99.90
36186;DHT22;22228;53.222;7.446;2022-07-01T07:03:41;15.80;99.90
36186;DHT22;22228;53.222;7.446;2022-07-01T07:06:05;15.90;99.90
36186;DHT22;22228;53.222;7.446;2022-07-01T07:08:27;15.90;99.90
36186;DHT22;22228;53.222;7.446;2022-07-01T07:10:50;16.00;99.90
36186;DHT22;22228;53.222;7.446;2022-07-01T07:13:12;16.00;99.90
36186;DHT22;22228;53.222;7.446;2022-07-01T07:15:34;16.10;99.90
36186;DHT22;22228;53.222;7.446;2022-07-01T07:17:56;16.10;99.90
36186;DHT22;22228;53.222;7.446;2022-07-01T07:20:18;16.10;99.90
36186;DHT22;22228;53.222;7.446;2022-07-01T07:22:40;16.10;99.90
36186;DHT22;22228;53.222;7.446;2022-07-01T07:25:03;16.10;99.90
36186;DHT22;22228;53.222;7.446;2022-07-01T07:27:26;16.10;99.90
36186;DHT22;22228;53.222;7.446;2022-07-01T07:29:54;16.20;99.90
36186;DHT22;22228;53.222;7.446;2022-07-01T07:32:16;16.30;99.90
36186;DHT22;22228;53.222;7.446;2022-07-01T07:34:38;16.50;99.90
36186;DHT22;22228;53.222;7.446;2022-07-01T07:37:01;16.50;99.90
36186;DHT22;22228;53.222;7.446;2022-07-01T07:39:22;16.60;99.90
36186;DHT22;22228;53.222;7.446;2022-07-01T07:41:52;16.70;99.90
36186;DHT22;22228;53.222;7.446;2022-07-01T07:44:15;16.90;99.90
36186;DHT22;22228;53.222;7.446;2022-07-01T07:46:37;17.10;99.90
36186;DHT22;22228;53.222;7.446;2022-07-01T07:48:59;17.10;99.90
36186;DHT22;22228;53.222;7.446;2022-07-01T07:51:21;17.20;99.90
36186;DHT22;22228;53.222;7.446;2022-07-01T07:53:46;17.40;99.90
36186;DHT22;22228;53.222;7.446;2022-07-01T07:56:08;17.50;99.90
36186;DHT22;22228;53.222;7.446;2022-07-01T07:58:31;17.50;99.90
36186;DHT22;22228;53.222;7.446;2022-07-01T08:00:55;17.50;99.90
36186;DHT22;22228;53.222;7.446;2022-07-01T08:03:17;17.50;99.90
36186;DHT22;22228;53.222;7.446;2022-07-01T08:05:39;17.70;99.90
36186;DHT22;22228;53.222;7.446;2022-07-01T08:08:00;17.70;99.90
36186;DHT22;22228;53.222;7.446;2022-07-01T08:10:22;17.60;99.90
36186;DHT22;22228;53.222;7.446;2022-07-01T08:12:44;17.60;99.90
36186;DHT22;22228;53.222;7.446;2022-07-01T08:15:07;17.70;99.90
36186;DHT22;22228;53.222;7.446;2022-07-01T08:17:32;17.70;99.90
36186;DHT22;22228;53.222;7.446;2022-07-01T08:19:54;17.80;99.90
36186;DHT22;22228;53.222;7.446;2022-07-01T08:22:17;17.90;99.90
36186;DHT22;22228;53.222;7.446;2022-07-01T08:24:39;17.90;99.90
36186;DHT22;22228;53.222;7.446;2022-07-01T08:27:03;17.90;99.90
36186;DHT22;22228;53.222;7.446;2022-07-01T08:29:26;17.90;99.90
36186;DHT22;22228;53.222;7.446;2022-07-01T08:31:49;17.90;99.90
36186;DHT22;22228;53.222;7.446;2022-07-01T08:34:15;18.00;99.90
36186;DHT22;22228;53.222;7.446;2022-07-01T08:36:37;18.10;99.90
36186;DHT22;22228;53.222;7.446;2022-07-01T08:38:59;18.20;99.90
36186;DHT22;22228;53.222;7.446;2022-07-01T08:41:21;18.20;99.90
36186;DHT22;22228;53.222;7.446;2022-07-01T08:43:43;18.30;99.90
36186;DHT22;22228;53.222;7.446;2022-07-01T08:46:07;18.40;99.90
36186;DHT22;22228;53.222;7.446;2022-07-01T08:48:30;18.40;99.90
36186;DHT22;22228;53.222;7.446;2022-07-01T08:50:53;18.30;99.90
36186;DHT22;22228;53.222;7.446;2022-07-01T08:53:15;18.30;99.90
36186;DHT22;22228;53.222;7.446;2022-07-01T08:55:38;18.30;99.90
36186;DHT22;22228;53.222;7.446;2022-07-01T08:58:14;18.20;99.90
36186;DHT22;22228;53.222;7.446;2022-07-01T09:00:36;18.10;99.90
36186;DHT22;22228;53.222;7.446;2022-07-01T09:03:01;18.00;99.90
36186;DHT22;22228;53.222;7.446;2022-07-01T09:05:24;18.10;99.90
36186;DHT22;22228;53.222;7.446;2022-07-01T09:07:49;18.20;99.90
36186;DHT22;22228;53.222;7.446;2022-07-01T09:10:18;18.20;99.90
36186;DHT22;22228;53.222;7.446;2022-07-01T09:12:40;18.10;99.90
36186;DHT22;22228;53.222;7.446;2022-07-01T09:15:19;18.20;99.90
36186;DHT22;22228;53.222;7.446;2022-07-01T09:17:41;18.30;99.90
36186;DHT22;22228;53.222;7.446;2022-07-01T09:20:04;18.40;99.90
36186;DHT22;22228;53.222;7.446;2022-07-01T09:22:26;18.60;99.90
36186;DHT22;22228;53.222;7.446;2022-07-01T09:24:51;18.80;99.90
36186;DHT22;22228;53.222;7.446;2022-07-01T09:27:14;19.00;99.90
36186;DHT22;22228;53.222;7.446;2022-07-01T09:29:40;19.10;99.90
36186;DHT22;22228;53.222;7.446;2022-07-01T09:32:04;19.00;99.90
36186;DHT22;22228;53.222;7.446;2022-07-01T09:34:26;18.90;99.90
36186;DHT22;22228;53.222;7.446;2022-07-01T09:36:53;18.80;99.90
36186;DHT22;22228;53.222;7.446;2022-07-01T09:39:15;18.70;99.90
36186;DHT22;22228;53.222;7.446;2022-07-01T09:41:57;18.70;99.90
36186;DHT22;22228;53.222;7.446;2022-07-01T09:44:19;18.50;99.90
36186;DHT22;22228;53.222;7.446;2022-07-01T09:46:51;18.60;99.90
36186;DHT22;22228;53.222;7.446;2022-07-01T09:49:14;18.60;99.90
36186;DHT22;22228;53.222;7.446;2022-07-01T09:51:36;18.70;99.90
36186;DHT22;22228;53.222;7.446;2022-07-01T09:53:58;18.80;99.90
36186;DHT22;22228;53.222;7.446;2022-07-01T09:56:20;18.80;99.90
36186;DHT22;22228;53.222;7.446;2022-07-01T09:58:43;19.00;99.90
36186;DHT22;22228;53.222;7.446;2022-07-01T10:01:07;19.30;99.90
36186;DHT22;22228;53.222;7.446;2022-07-01T10:03:31;19.50;99.90
36186;DHT22;22228;53.222;7.446;2022-07-01T10:05:56;19.70;99.90
36186;DHT22;22228;53.222;7.446;2022-07-01T10:08:32;19.80;99.90
36186;DHT22;22228;53.222;7.446;2022-07-01T10:11:05;19.80;99.90
36186;DHT22;22228;53.222;7.446;2022-07-01T10:13:34;20.00;99.90
36186;DHT22;22228;53.222;7.446;2022-07-01T10:15:59;20.20;99.90
36186;DHT22;22228;53.222;7.446;2022-07-01T10:18:24;20.10;99.90
36186;DHT22;22228;53.222;7.446;2022-07-01T10:20:47;20.00;99.90
36186;DHT22;22228;53.222;7.446;2022-07-01T10:23:10;20.00;99.90
36186;DHT22;22228;53.222;7.446;2022-07-01T10:25:34;20.10;99.90
36186;DHT22;22228;53.222;7.446;2022-07-01T10:28:17;20.40;99.90
36186;DHT22;22228;53.222;7.446;2022-07-01T10:30:49;20.60;99.90
36186;DHT22;22228;53.222;7.446;2022-07-01T10:33:30;20.60;99.90
36186;DHT22;22228;53.222;7.446;2022-07-01T10:35:53;20.60;99.90
36186;DHT22;22228;53.222;7.446;2022-07-01T10:38:15;20.50;99.90
36186;DHT22;22228;53.222;7.446;2022-07-01T10:40:44;20.50;99.90
36186;DHT22;22228;53.222;7.446;2022-07-01T10:43:07;20.60;99.90
36186;DHT22;22228;53.222;7.446;2022-07-01T10:45:43;20.50;99.90
36186;DHT22;22228;53.222;7.446;2022-07-01T10:48:20;20.60;99.90
36186;DHT22;22228;53.222;7.446;2022-07-01T10:50:45;20.80;99.90
36186;DHT22;22228;53.222;7.446;2022-07-01T10:53:08;21.10;99.90
36186;DHT22;22228;53.222;7.446;2022-07-01T10:55:36;21.80;99.90
36186;DHT22;22228;53.222;7.446;2022-07-01T10:57:58;22.00;99.90
36186;DHT22;22228;53.222;7.446;2022-07-01T11:00:29;22.00;99.90
36186;DHT22;22228;53.222;7.446;2022-07-01T11:02:55;21.80;99.90
36186;DHT22;22228;53.222;7.446;2022-07-01T11:05:18;21.80;99.90
36186;DHT22;22228;53.222;7.446;2022-07-01T11:07:42;21.60;99.90
36186;DHT22;22228;53.222;7.446;2022-07-01T11:10:07;21.60;99.90
36186;DHT22;22228;53.222;7.446;2022-07-01T11:12:30;21.50;99.90
36186;DHT22;22228;53.222;7.446;2022-07-01T11:14:55;21.80;99.90
36186;DHT22;22228;53.222;7.446;2022-07-01T11:17:19;22.00;99.90
36186;DHT22;22228;53.222;7.446;2022-07-01T11:19:47;21.70;99.90
36186;DHT22;22228;53.222;7.446;2022-07-01T11:22:11;21.40;99.90
36186;DHT22;22228;53.222;7.446;2022-07-01T11:24:33;21.20;99.90
36186;DHT22;22228;53.222;7.446;2022-07-01T11:26:55;21.10;99.90
36186;DHT22;22228;53.222;7.446;2022-07-01T11:29:25;21.00;99.90
36186;DHT22;22228;53.222;7.446;2022-07-01T11:31:48;21.00;99.90
36186;DHT22;22228;53.222;7.446;2022-07-01T11:34:15;21.00;99.90
36186;DHT22;22228;53.222;7.446;2022-07-01T11:36:43;20.90;99.90
36186;DHT22;22228;53.222;7.446;2022-07-01T11:39:24;21.10;99.90
36186;DHT22;22228;53.222;7.446;2022-07-01T11:41:47;21.70;99.90
36186;DHT22;22228;53.222;7.446;2022-07-01T11:44:09;22.00;99.90
36186;DHT22;22228;53.222;7.446;2022-07-01T11:46:31;22.30;99.90
36186;DHT22;22228;53.222;7.446;2022-07-01T11:48:53;22.30;99.90
36186;DHT22;22228;53.222;7.446;2022-07-01T11:51:18;21.90;99.90
36186;DHT22;22228;53.222;7.446;2022-07-01T11:53:43;21.70;99.90
36186;DHT22;22228;53.222;7.446;2022-07-01T11:56:07;21.90;99.90
36186;DHT22;22228;53.222;7.446;2022-07-01T11:58:45;22.20;99.90
36186;DHT22;22228;53.222;7.446;2022-07-01T12:01:08;22.90;99.90
36186;DHT22;22228;53.222;7.446;2022-07-01T12:03:31;23.20;99.90
36186;DHT22;22228;53.222;7.446;2022-07-01T12:05:53;22.80;99.90
36186;DHT22;22228;53.222;7.446;2022-07-01T12:08:15;23.00;99.90
36186;DHT22;22228;53.222;7.446;2022-07-01T12:10:37;22.80;99.90
36186;DHT22;22228;53.222;7.446;2022-07-01T12:13:20;22.80;99.90
36186;DHT22;22228;53.222;7.446;2022-07-01T12:15:42;22.90;99.90
36186;DHT22;22228;53.222;7.446;2022-07-01T12:18:05;23.60;99.90
36186;DHT22;22228;53.222;7.446;2022-07-01T12:20:31;24.00;99.90
36186;DHT22;22228;53.222;7.446;2022-07-01T12:23:10;24.80;99.90
36186;DHT22;22228;53.222;7.446;2022-07-01T12:25:33;25.40;99.90
36186;DHT22;22228;53.222;7.446;2022-07-01T12:27:55;26.00;99.90
36186;DHT22;22228;53.222;7.446;2022-07-01T12:30:24;26.40;99.90
36186;DHT22;22228;53.222;7.446;2022-07-01T12:32:53;26.70;99.90
36186;DHT22;22228;53.222;7.446;2022-07-01T12:35:23;26.40;99.90
36186;DHT22;22228;53.222;7.446;2022-07-01T12:37:59;26.40;99.90
36186;DHT22;22228;53.222;7.446;2022-07-01T12:40:23;26.10;99.90
36186;DHT22;22228;53.222;7.446;2022-07-01T12:42:46;25.80;99.90
36186;DHT22;22228;53.222;7.446;2022-07-01T12:45:10;25.50;99.90
36186;DHT22;22228;53.222;7.446;2022-07-01T12:47:35;25.00;99.90
36186;DHT22;22228;53.222;7.446;2022-07-01T12:50:15;24.50;99.90
36186;DHT22;22228;53.222;7.446;2022-07-01T12:52:38;25.10;99.90
36186;DHT22;22228;53.222;7.446;2022-07-01T12:55:13;24.50;99.90
36186;DHT22;22228;53.222;7.446;2022-07-01T12:57:35;25.20;99.90
36186;DHT22;22228;53.222;7.446;2022-07-01T12:59:59;25.80;99.90
36186;DHT22;22228;53.222;7.446;2022-07-01T13:02:21;25.50;99.90
36186;DHT22;22228;53.222;7.446;2022-07-01T13:04:45;24.70;99.90
36186;DHT22;22228;53.222;7.446;2022-07-01T13:07:07;24.10;99.90
36186;DHT22;22228;53.222;7.446;2022-07-01T13:09:29;24.30;99.90
36186;DHT22;22228;53.222;7.446;2022-07-01T13:11:58;25.50;99.90
36186;DHT22;22228;53.222;7.446;2022-07-01T13:14:20;25.60;99.90
36186;DHT22;22228;53.222;7.446;2022-07-01T13:16:42;25.00;99.90
36186;DHT22;22228;53.222;7.446;2022-07-01T13:19:04;24.10;99.90
36186;DHT22;22228;53.222;7.446;2022-07-01T13:21:28;22.90;99.90
36186;DHT22;22228;53.222;7.446;2022-07-01T13:23:50;22.20;99.90
36186;DHT22;22228;53.222;7.446;2022-07-01T13:26:32;21.70;99.90
36186;DHT22;22228;53.222;7.446;2022-07-01T13:28:54;21.00;99.90
36186;DHT22;22228;53.222;7.446;2022-07-01T13:31:16;20.80;99.90
36186;DHT22;22228;53.222;7.446;2022-07-01T13:33:38;20.90;99.90
36186;DHT22;22228;53.222;7.446;2022-07-01T13:36:01;20.80;99.90
36186;DHT22;22228;53.222;7.446;2022-07-01T13:38:24;20.40;99.90
36186;DHT22;22228;53.222;7.446;2022-07-01T13:40:46;20.30;99.90
36186;DHT22;22228;53.222;7.446;2022-07-01T13:43:09;20.10;99.90
36186;DHT22;22228;53.222;7.446;2022-07-01T13:45:31;20.00;99.90
36186;DHT22;22228;53.222;7.446;2022-07-01T13:47:53;20.00;99.90
36186;DHT22;22228;53.222;7.446;2022-07-01T13:50:15;20.00;99.90
36186;DHT22;22228;53.222;7.446;2022-07-01T13:52:40;20.10;99.90
36186;DHT22;22228;53.222;7.446;2022-07-01T13:55:08;20.10;99.90
36186;DHT22;22228;53.222;7.446;2022-07-01T13:57:30;20.10;99.90
36186;DHT22;22228;53.222;7.446;2022-07-01T13:59:53;20.10;99.90
36186;DHT22;22228;53.222;7.446;2022-07-01T14:02:16;20.10;99.90
36186;DHT22;22228;53.222;7.446;2022-07-01T14:04:39;20.20;99.90
36186;DHT22;22228;53.222;7.446;2022-07-01T14:07:01;20.30;99.90
36186;DHT22;22228;53.222;7.446;2022-07-01T14:09:24;20.40;99.90
36186;DHT22;22228;53.222;7.446;2022-07-01T14:11:47;20.40;99.90
36186;DHT22;22228;53.222;7.446;2022-07-01T14:14:09;20.40;99.90
36186;DHT22;22228;53.222;7.446;2022-07-01T14:16:31;20.60;99.90
36186;DHT22;22228;53.222;7.446;2022-07-01T14:18:54;20.70;99.90
36186;DHT22;22228;53.222;7.446;2022-07-01T14:21:17;20.80;99.90
36186;DHT22;22228;53.222;7.446;2022-07-01T14:23:39;20.90;99.90
36186;DHT22;22228;53.222;7.446;2022-07-01T14:26:01;21.20;99.90
36186;DHT22;22228;53.222;7.446;2022-07-01T14:28:24;22.00;99.90
36186;DHT22;22228;53.222;7.446;2022-07-01T14:30:47;23.80;99.90
36186;DHT22;22228;53.222;7.446;2022-07-01T14:33:10;25.80;99.90
36186;DHT22;22228;53.222;7.446;2022-07-01T14:35:32;26.10;99.90
36186;DHT22;22228;53.222;7.446;2022-07-01T14:37:54;25.50;99.90
36186;DHT22;22228;53.222;7.446;2022-07-01T14:40:16;24.40;99.90
36186;DHT22;22228;53.222;7.446;2022-07-01T14:42:39;23.60;99.90
36186;DHT22;22228;53.222;7.446;2022-07-01T14:45:03;23.30;99.90
36186;DHT22;22228;53.222;7.446;2022-07-01T14:47:25;23.10;99.90
36186;DHT22;22228;53.222;7.446;2022-07-01T14:49:47;23.30;99.90
36186;DHT22;22228;53.222;7.446;2022-07-01T14:52:10;23.80;99.90
36186;DHT22;22228;53.222;7.446;2022-07-01T14:54:34;24.30;99.90
36186;DHT22;22228;53.222;7.446;2022-07-01T14:56:56;24.90;99.90
36186;DHT22;22228;53.222;7.446;2022-07-01T14:59:18;24.90;99.90
36186;DHT22;22228;53.222;7.446;2022-07-01T15:01:41;24.30;99.90
36186;DHT22;22228;53.222;7.446;2022-07-01T15:04:04;24.30;99.90
36186;DHT22;22228;53.222;7.446;2022-07-01T15:06:26;24.00;99.90
36186;DHT22;22228;53.222;7.446;2022-07-01T15:08:48;23.90;99.90